Time;durP1;ratioP1;P1;durP2;ratioP2;P2;SDS_P1;SDS_P2;PMS_P1;PMS_P2;Temp;Humidity;BMP_temperature;BMP_pressure;BME280_temperature;BME280_humidity;BME280_pressure;Samples;Min_cycle;Max_cycle;Signal;HPM_P1;HPM_P2
2021/05/16 00:01:09;;;;;;;4.68;1.02;;;13.10;99.90;;;;;;4976261;28;20798;-79
2021/05/16 00:03:37;;;;;;;4.28;1.15;;;13.10;99.90;;;;;;4976954;28;20250;-78
2021/05/16 00:06:03;;;;;;;5.32;1.50;;;13.10;99.90;;;;;;4956566;28;20199;-79
2021/05/16 00:08:29;;;;;;;3.60;1.30;;;13.10;99.90;;;;;;4972622;28;20191;-79
2021/05/16 00:10:55;;;;;;;5.73;1.43;;;13.10;99.90;;;;;;4955430;28;20238;-79
2021/05/16 00:13:22;;;;;;;6.57;1.00;;;13.10;99.90;;;;;;4972929;28;20535;-79
2021/05/16 00:15:48;;;;;;;4.60;1.50;;;13.10;99.90;;;;;;4973339;28;20230;-79
2021/05/16 00:18:13;;;;;;;4.13;1.08;;;13.10;99.90;;;;;;4972817;28;20584;-79
2021/05/16 00:20:40;;;;;;;3.73;1.10;;;13.10;99.90;;;;;;4955482;28;20203;-79
2021/05/16 00:23:06;;;;;;;6.63;1.20;;;13.20;99.90;;;;;;4955739;28;20182;-79
2021/05/16 00:25:33;;;;;;;3.63;1.13;;;13.20;99.90;;;;;;4955589;28;20191;-78
2021/05/16 00:27:59;;;;;;;7.18;1.45;;;13.20;99.90;;;;;;4955101;28;20175;-79
2021/05/16 00:30:26;;;;;;;2.57;1.00;;;13.30;99.90;;;;;;4955339;28;20249;-79
2021/05/16 00:32:56;;;;;;;4.43;1.00;;;13.30;99.90;;;;;;4955650;28;20614;-79
2021/05/16 00:35:24;;;;;;;5.38;1.30;;;13.30;99.90;;;;;;4955452;28;20168;-79
2021/05/16 00:37:50;;;;;;;5.95;1.10;;;13.30;99.90;;;;;;4972483;28;20568;-79
2021/05/16 00:40:17;;;;;;;5.47;1.13;;;13.30;99.90;;;;;;4971589;28;20211;-79
2021/05/16 00:42:43;;;;;;;2.85;1.30;;;13.30;99.90;;;;;;4955423;28;20169;-79
2021/05/16 00:45:14;;;;;;;4.82;1.38;;;13.30;99.90;;;;;;4955609;28;20168;-79
2021/05/16 00:47:50;;;;;;;4.63;1.42;;;13.30;99.90;;;;;;4972455;28;20186;-79
2021/05/16 00:50:18;;;;;;;8.48;1.45;;;13.30;99.90;;;;;;4972574;28;20210;-79
2021/05/16 00:52:44;;;;;;;4.03;1.10;;;13.30;99.90;;;;;;4941334;28;20167;-79
2021/05/16 00:55:12;;;;;;;7.30;1.50;;;13.30;99.90;;;;;;4943219;28;20172;-78
2021/05/16 00:57:40;;;;;;;6.15;1.30;;;13.20;99.90;;;;;;4958569;28;20172;-79
2021/05/16 01:00:10;;;;;;;6.43;1.95;;;13.20;99.90;;;;;;4976326;28;20223;-78
2021/05/16 01:02:37;;;;;;;4.20;1.20;;;13.10;99.90;;;;;;4942992;28;20234;-79
2021/05/16 01:05:04;;;;;;;6.18;1.60;;;13.00;99.90;;;;;;4942860;28;20183;-79
2021/05/16 01:07:30;;;;;;;4.95;1.27;;;13.00;99.90;;;;;;4942227;28;20199;-79
2021/05/16 01:09:56;;;;;;;4.13;1.33;;;12.90;99.90;;;;;;4954331;28;20227;-79
2021/05/16 01:12:29;;;;;;;6.07;1.93;;;12.80;99.90;;;;;;4969760;28;20185;-79
2021/05/16 01:14:57;;;;;;;5.75;1.30;;;12.80;99.90;;;;;;4934710;28;20590;-78
2021/05/16 01:17:23;;;;;;;8.88;1.60;;;12.70;99.90;;;;;;4957338;28;20204;-79
2021/05/16 01:19:48;;;;;;;3.33;1.10;;;12.60;99.90;;;;;;4967832;28;20218;-79
2021/05/16 01:22:14;;;;;;;3.50;1.10;;;12.60;99.90;;;;;;4976103;28;20174;-79
2021/05/16 01:24:43;;;;;;;5.45;1.30;;;12.50;99.90;;;;;;4948893;29;20207;-79
2021/05/16 01:27:11;;;;;;;5.00;1.02;;;12.40;99.90;;;;;;4972387;28;20199;-79
2021/05/16 01:29:37;;;;;;;4.82;1.63;;;12.40;99.90;;;;;;4958491;28;20188;-79
2021/05/16 01:32:03;;;;;;;8.00;1.27;;;12.40;99.90;;;;;;4958272;28;20180;-79
2021/05/16 01:34:29;;;;;;;9.02;1.60;;;12.30;99.90;;;;;;4975655;28;20168;-79
2021/05/16 01:36:55;;;;;;;7.83;1.80;;;12.30;99.90;;;;;;4958294;28;20172;-79
2021/05/16 01:39:21;;;;;;;5.20;1.57;;;12.20;99.90;;;;;;4958602;28;20621;-79
2021/05/16 01:41:47;;;;;;;5.63;1.65;;;12.20;99.90;;;;;;4958600;28;20582;-79
2021/05/16 01:44:15;;;;;;;6.20;1.50;;;12.10;99.90;;;;;;4958778;28;20176;-79
2021/05/16 01:46:44;;;;;;;3.83;1.02;;;12.10;99.90;;;;;;4970525;28;20277;-79
2021/05/16 01:49:11;;;;;;;3.10;1.00;;;12.10;99.90;;;;;;4967811;28;20226;-79
2021/05/16 01:51:37;;;;;;;3.50;1.20;;;12.00;99.90;;;;;;4975982;28;20224;-79
2021/05/16 01:54:03;;;;;;;4.53;1.30;;;12.00;99.90;;;;;;4977982;28;20872;-79
2021/05/16 01:56:30;;;;;;;6.68;1.65;;;12.00;99.90;;;;;;4977310;28;20586;-79
2021/05/16 01:58:57;;;;;;;5.40;1.30;;;12.00;99.90;;;;;;4960497;28;20283;-78
2021/05/16 02:01:24;;;;;;;3.67;1.20;;;11.90;99.90;;;;;;4977650;28;20667;-79
2021/05/16 02:03:54;;;;;;;5.60;1.10;;;11.90;99.90;;;;;;4977519;28;20167;-79
2021/05/16 02:06:21;;;;;;;2.88;1.05;;;11.90;99.90;;;;;;4975636;28;20199;-79
2021/05/16 02:08:50;;;;;;;2.92;1.00;;;11.80;99.90;;;;;;4974901;28;20168;-79
2021/05/16 02:11:28;;;;;;;2.33;0.98;;;11.80;99.90;;;;;;4959964;28;20195;-78
2021/05/16 02:14:01;;;;;;;6.47;1.45;;;11.80;99.90;;;;;;4957892;28;20563;-78
2021/05/16 02:16:27;;;;;;;5.10;1.33;;;11.70;99.90;;;;;;4957531;28;20176;-78
2021/05/16 02:18:59;;;;;;;8.55;1.02;;;11.70;99.90;;;;;;4974981;28;20567;-78
2021/05/16 02:21:30;;;;;;;6.40;1.33;;;11.70;99.90;;;;;;4958197;28;20679;-77
2021/05/16 02:23:55;;;;;;;4.43;1.30;;;11.60;99.90;;;;;;4957673;28;20199;-78
2021/05/16 02:26:31;;;;;;;7.05;1.20;;;11.60;99.90;;;;;;4958824;28;20261;-77
2021/05/16 02:28:57;;;;;;;6.73;1.13;;;11.70;99.90;;;;;;4976285;28;20183;-77
2021/05/16 02:31:23;;;;;;;3.63;1.03;;;11.70;99.90;;;;;;4975872;28;21237;-78
2021/05/16 02:33:52;;;;;;;3.63;1.35;;;11.70;99.90;;;;;;4974541;28;20631;-77
2021/05/16 02:36:18;;;;;;;3.80;1.20;;;11.70;99.90;;;;;;4956905;28;20258;-77
2021/05/16 02:38:44;;;;;;;3.70;1.00;;;11.70;99.90;;;;;;4974152;28;20172;-78
2021/05/16 02:41:11;;;;;;;3.90;0.90;;;11.70;99.90;;;;;;4957053;28;20598;-78
2021/05/16 02:43:37;;;;;;;5.32;1.17;;;11.70;99.90;;;;;;4956978;28;20640;-77
2021/05/16 02:46:04;;;;;;;3.70;1.00;;;11.70;99.90;;;;;;4956859;28;20195;-77
2021/05/16 02:48:30;;;;;;;4.75;1.42;;;11.60;99.90;;;;;;4940387;28;20227;-77
2021/05/16 02:50:56;;;;;;;5.07;1.23;;;11.60;99.90;;;;;;4956743;28;20279;-78
2021/05/16 02:53:29;;;;;;;2.17;1.08;;;11.60;99.90;;;;;;4956725;28;20207;-78
2021/05/16 02:56:00;;;;;;;5.70;1.23;;;11.60;99.90;;;;;;4957456;28;20186;-77
2021/05/16 02:58:26;;;;;;;3.65;0.98;;;11.50;99.90;;;;;;4956209;28;20670;-77
2021/05/16 03:00:56;;;;;;;4.45;0.90;;;11.50;99.90;;;;;;4956632;28;20196;-77
2021/05/16 03:03:23;;;;;;;3.50;1.13;;;11.50;99.90;;;;;;4956540;28;20172;-78
2021/05/16 03:05:52;;;;;;;3.88;1.20;;;11.50;99.90;;;;;;4940239;28;20210;-77
2021/05/16 03:08:21;;;;;;;6.13;1.40;;;11.40;99.90;;;;;;4940603;28;20519;-78
2021/05/16 03:10:47;;;;;;;5.47;1.10;;;11.40;99.90;;;;;;4956094;28;20338;-78
2021/05/16 03:13:14;;;;;;;4.40;1.50;;;11.40;99.90;;;;;;4973678;28;20191;-78
2021/05/16 03:15:40;;;;;;;6.77;1.30;;;11.30;99.90;;;;;;4956018;28;20214;-77
2021/05/16 03:18:05;;;;;;;2.67;1.00;;;11.30;99.90;;;;;;4955849;28;20172;-77
2021/05/16 03:20:32;;;;;;;3.95;1.20;;;11.30;99.90;;;;;;4956205;28;20278;-77
2021/05/16 03:22:58;;;;;;;3.23;1.53;;;11.30;99.90;;;;;;4956401;28;20250;-77
2021/05/16 03:25:28;;;;;;;3.63;1.10;;;11.20;99.90;;;;;;4973434;28;20602;-78
2021/05/16 03:27:54;;;;;;;4.07;1.23;;;11.20;99.90;;;;;;4955915;28;20598;-77
2021/05/16 03:30:20;;;;;;;3.30;1.00;;;11.20;99.90;;;;;;4973141;28;20286;-77
2021/05/16 03:32:46;;;;;;;3.05;1.42;;;11.20;99.90;;;;;;4973381;28;20564;-77
2021/05/16 03:35:13;;;;;;;5.33;1.03;;;11.10;99.90;;;;;;4972035;28;20175;-77
2021/05/16 03:37:40;;;;;;;4.75;1.70;;;11.10;99.90;;;;;;4972757;28;20629;-77
2021/05/16 03:40:06;;;;;;;4.97;1.25;;;11.10;99.90;;;;;;4972942;28;20199;-77
2021/05/16 03:42:34;;;;;;;3.92;2.38;;;11.10;99.90;;;;;;4982403;28;20176;-76
2021/05/16 03:45:00;;;;;;;5.22;1.13;;;11.10;99.90;;;;;;4973277;28;20179;-77
2021/05/16 03:47:26;;;;;;;4.28;0.95;;;11.10;99.90;;;;;;4972854;28;20195;-77
2021/05/16 03:49:52;;;;;;;3.30;0.93;;;11.00;99.90;;;;;;4973168;28;20194;-77
2021/05/16 03:52:21;;;;;;;5.97;1.50;;;11.00;99.90;;;;;;4956069;28;21115;-78
2021/05/16 03:54:48;;;;;;;5.50;1.55;;;11.00;99.90;;;;;;4955619;28;20187;-77
2021/05/16 03:57:16;;;;;;;5.50;1.90;;;11.00;99.90;;;;;;4972704;28;20182;-77
2021/05/16 03:59:42;;;;;;;5.93;1.10;;;11.00;99.90;;;;;;4972861;28;20188;-77
2021/05/16 04:02:08;;;;;;;5.18;1.10;;;11.00;99.90;;;;;;4955651;28;20180;-77
2021/05/16 04:04:34;;;;;;;1.93;0.83;;;11.00;99.90;;;;;;4972921;28;20175;-77
2021/05/16 04:06:59;;;;;;;3.60;1.40;;;11.10;99.90;;;;;;4972541;28;20259;-77
2021/05/16 04:09:25;;;;;;;1.70;1.10;;;11.00;99.90;;;;;;4972647;28;20247;-77
2021/05/16 04:11:51;;;;;;;2.77;0.90;;;11.00;99.90;;;;;;4955519;28;20170;-78
2021/05/16 04:14:17;;;;;;;4.40;0.90;;;11.00;99.90;;;;;;4955600;28;21133;-77
2021/05/16 04:16:43;;;;;;;2.53;1.00;;;11.00;99.90;;;;;;4955224;28;20199;-77
2021/05/16 04:19:09;;;;;;;4.53;1.23;;;11.00;99.90;;;;;;4971540;28;20182;-77
2021/05/16 04:21:35;;;;;;;5.20;1.40;;;11.00;99.90;;;;;;4972632;28;20555;-77
2021/05/16 04:24:01;;;;;;;4.43;1.30;;;11.00;99.90;;;;;;4972770;28;20175;-77
2021/05/16 04:26:27;;;;;;;5.67;1.17;;;11.00;99.90;;;;;;4955126;28;20207;-77
2021/05/16 04:28:52;;;;;;;4.23;1.80;;;11.10;99.90;;;;;;4976617;28;20246;-77
2021/05/16 04:31:18;;;;;;;2.90;1.00;;;11.10;99.90;;;;;;4976635;28;20622;-77
2021/05/16 04:33:44;;;;;;;4.57;1.23;;;11.20;99.90;;;;;;4976613;28;20171;-77
2021/05/16 04:36:10;;;;;;;2.60;0.90;;;11.30;99.90;;;;;;4975378;28;20183;-77
2021/05/16 04:38:35;;;;;;;3.90;1.10;;;11.40;99.90;;;;;;4958713;28;20200;-77
2021/05/16 04:41:01;;;;;;;2.53;1.17;;;11.50;99.90;;;;;;4959173;28;20254;-77
2021/05/16 04:43:27;;;;;;;2.60;0.80;;;11.60;99.90;;;;;;4976315;28;20246;-76
2021/05/16 04:45:53;;;;;;;3.63;1.10;;;11.70;99.90;;;;;;4976197;28;20698;-76
2021/05/16 04:48:18;;;;;;;4.20;1.92;;;11.90;99.90;;;;;;4958764;28;20171;-76
2021/05/16 04:50:44;;;;;;;5.00;0.90;;;12.00;99.90;;;;;;4976269;28;20206;-76
2021/05/16 04:53:10;;;;;;;2.63;0.90;;;12.10;99.90;;;;;;4976126;28;20172;-76
2021/05/16 04:55:36;;;;;;;4.47;1.20;;;12.30;99.90;;;;;;4974835;28;20183;-76
2021/05/16 04:58:02;;;;;;;3.07;1.00;;;12.50;99.90;;;;;;4974407;28;20567;-76
2021/05/16 05:00:27;;;;;;;5.20;1.20;;;12.60;99.90;;;;;;4976099;28;20220;-76
2021/05/16 05:02:53;;;;;;;2.40;0.90;;;12.70;99.90;;;;;;4976062;28;20168;-76
2021/05/16 05:05:19;;;;;;;4.23;0.90;;;12.80;99.90;;;;;;4976031;28;20523;-77
2021/05/16 05:07:45;;;;;;;3.17;1.10;;;12.90;99.90;;;;;;4974292;28;21125;-76
2021/05/16 05:10:11;;;;;;;2.87;1.30;;;13.00;99.90;;;;;;4975810;28;20734;-76
2021/05/16 05:12:37;;;;;;;2.38;0.95;;;13.10;99.90;;;;;;4976015;28;20172;-76
2021/05/16 05:15:04;;;;;;;4.73;1.03;;;13.10;99.90;;;;;;4975905;28;20178;-78
2021/05/16 05:17:30;;;;;;;4.63;0.88;;;13.20;99.90;;;;;;4958122;28;20207;-78
2021/05/16 05:19:56;;;;;;;5.63;1.43;;;13.20;99.90;;;;;;4974333;28;20199;-78
2021/05/16 05:22:22;;;;;;;1.93;0.80;;;13.30;99.90;;;;;;4958556;28;20591;-78
2021/05/16 05:24:47;;;;;;;2.67;0.80;;;13.40;99.90;;;;;;4958288;28;20575;-77
2021/05/16 05:27:13;;;;;;;3.50;1.07;;;13.50;99.90;;;;;;4975143;28;20195;-77
2021/05/16 05:29:39;;;;;;;4.10;1.00;;;13.60;99.90;;;;;;4974253;28;20183;-77
2021/05/16 05:32:05;;;;;;;3.13;1.20;;;13.70;99.90;;;;;;4975493;28;20163;-78
2021/05/16 05:34:31;;;;;;;3.83;1.15;;;13.80;99.90;;;;;;4975434;28;20179;-78
2021/05/16 05:36:57;;;;;;;3.83;1.10;;;13.90;99.90;;;;;;4974976;28;20535;-78
2021/05/16 05:39:22;;;;;;;4.27;1.00;;;13.90;99.90;;;;;;4974930;28;20722;-78
2021/05/16 05:41:48;;;;;;;3.30;0.90;;;14.00;99.90;;;;;;4974234;28;20579;-78
2021/05/16 05:44:14;;;;;;;3.90;1.47;;;14.00;99.90;;;;;;4975459;28;20279;-78
2021/05/16 05:46:41;;;;;;;4.00;1.27;;;14.00;99.90;;;;;;4975046;28;20203;-78
2021/05/16 05:49:07;;;;;;;2.75;0.93;;;14.00;99.90;;;;;;4975252;28;20172;-77
2021/05/16 05:51:33;;;;;;;3.58;1.23;;;14.00;99.90;;;;;;4975023;28;20195;-78
2021/05/16 05:53:59;;;;;;;4.00;1.48;;;14.00;99.90;;;;;;4967928;28;20224;-78
2021/05/16 05:56:25;;;;;;;6.90;1.20;;;14.00;99.90;;;;;;4938437;29;20476;-77
2021/05/16 05:58:51;;;;;;;2.93;1.10;;;14.10;99.90;;;;;;4935418;29;20296;-78
2021/05/16 06:01:17;;;;;;;2.40;0.82;;;14.10;99.90;;;;;;4930185;29;20201;-78
2021/05/16 06:03:44;;;;;;;3.37;1.10;;;14.10;99.90;;;;;;4947729;29;20186;-78
2021/05/16 06:06:10;;;;;;;6.93;1.42;;;14.10;99.90;;;;;;4943735;29;20243;-78
2021/05/16 06:08:38;;;;;;;5.30;1.10;;;14.10;99.90;;;;;;4919003;29;20177;-77
2021/05/16 06:11:04;;;;;;;3.00;0.90;;;14.20;99.90;;;;;;4923579;29;20612;-80
2021/05/16 06:13:30;;;;;;;1.88;0.80;;;14.20;99.90;;;;;;4919598;29;20184;-81
2021/05/16 06:15:58;;;;;;;3.30;1.10;;;14.30;99.90;;;;;;4926865;28;20185;-80
2021/05/16 06:18:24;;;;;;;3.60;1.13;;;14.30;99.90;;;;;;4960209;28;20231;-80
2021/05/16 06:20:52;;;;;;;3.50;1.00;;;14.20;99.90;;;;;;4960988;28;20200;-80
2021/05/16 06:23:19;;;;;;;4.63;1.05;;;14.20;99.90;;;;;;4958311;29;20254;-80
2021/05/16 06:25:46;;;;;;;3.75;1.33;;;14.20;99.90;;;;;;4956172;29;20189;-79
2021/05/16 06:28:15;;;;;;;3.80;1.25;;;14.10;99.90;;;;;;4929373;29;20173;-79
2021/05/16 06:33:28;;;;;;;7.57;1.67;;;14.00;99.90;;;;;;5499663;23;20282;-80
2021/05/16 06:46:46;;;;;;;3.30;1.25;;;13.30;99.90;;;;;;4998576;28;20203;-78
2021/05/16 06:49:17;;;;;;;4.78;1.00;;;13.20;99.90;;;;;;4974632;28;20239;-78
2021/05/16 06:51:43;;;;;;;3.55;1.05;;;13.20;99.90;;;;;;4975413;28;20168;-77
2021/05/16 06:54:09;;;;;;;2.35;0.85;;;13.10;99.90;;;;;;4957161;28;20549;-78
2021/05/16 06:56:36;;;;;;;3.40;1.03;;;13.00;99.90;;;;;;4958247;28;20174;-78
2021/05/16 06:59:04;;;;;;;3.05;0.80;;;13.00;99.90;;;;;;4974734;28;20163;-78
2021/05/16 07:01:30;;;;;;;3.05;0.80;;;13.00;99.90;;;;;;4956641;28;20218;-78
2021/05/16 07:03:56;;;;;;;1.63;0.80;;;13.00;99.90;;;;;;4924758;28;20199;-78
2021/05/16 07:06:21;;;;;;;2.70;0.83;;;13.00;99.90;;;;;;4973744;28;20199;-78
2021/05/16 07:08:47;;;;;;;2.50;0.90;;;13.10;99.90;;;;;;4973709;28;20160;-78
2021/05/16 07:11:14;;;;;;;2.13;1.03;;;13.10;99.90;;;;;;4956362;28;20192;-78
2021/05/16 07:13:40;;;;;;;2.70;1.10;;;13.10;99.90;;;;;;4956465;28;21229;-78
2021/05/16 07:16:06;;;;;;;5.10;1.10;;;13.20;99.90;;;;;;4956822;28;20250;-78
2021/05/16 07:18:32;;;;;;;2.40;1.15;;;13.30;99.90;;;;;;4924731;28;20218;-78
2021/05/16 07:20:58;;;;;;;1.60;0.73;;;13.40;99.90;;;;;;4956383;28;20284;-76
2021/05/16 07:23:23;;;;;;;2.85;0.85;;;13.40;99.90;;;;;;4958535;28;20259;-76
2021/05/16 07:25:49;;;;;;;5.20;0.97;;;13.50;99.90;;;;;;4992752;28;20297;-77
2021/05/16 07:28:15;;;;;;;2.50;0.83;;;13.60;99.90;;;;;;4985365;28;20175;-76
2021/05/16 07:30:41;;;;;;;4.03;0.90;;;13.70;99.90;;;;;;4973206;28;20183;-76
2021/05/16 07:33:06;;;;;;;2.50;0.90;;;13.70;99.90;;;;;;4963849;28;20182;-76
2021/05/16 07:35:33;;;;;;;2.40;0.73;;;13.80;99.90;;;;;;4940807;28;20176;-76
2021/05/16 07:37:58;;;;;;;1.52;1.23;;;13.90;99.90;;;;;;4973033;28;20590;-76
2021/05/16 07:40:25;;;;;;;2.53;0.70;;;13.90;99.90;;;;;;4955920;28;20560;-76
2021/05/16 07:42:51;;;;;;;1.50;0.70;;;14.00;99.90;;;;;;4973186;28;20266;-76
2021/05/16 07:45:17;;;;;;;2.87;1.00;;;14.10;99.90;;;;;;4972904;28;20648;-76
2021/05/16 07:47:43;;;;;;;3.55;0.90;;;14.30;99.90;;;;;;4972658;28;20230;-77
2021/05/16 07:50:11;;;;;;;2.80;0.80;;;14.30;99.90;;;;;;4956551;28;20223;-77
2021/05/16 07:52:37;;;;;;;6.38;0.70;;;14.50;99.90;;;;;;4966176;28;20603;-77
2021/05/16 07:55:04;;;;;;;2.07;0.80;;;14.60;99.90;;;;;;4990907;28;20709;-76
2021/05/16 07:57:29;;;;;;;1.80;0.87;;;14.70;99.90;;;;;;4999681;28;20946;-76
2021/05/16 07:59:55;;;;;;;2.30;0.77;;;14.90;99.90;;;;;;5000311;28;20604;-77
2021/05/16 08:02:21;;;;;;;3.33;0.63;;;15.00;99.90;;;;;;4995822;28;20182;-76
2021/05/16 08:04:47;;;;;;;1.70;0.60;;;15.10;99.90;;;;;;4937815;29;20195;-77
2021/05/16 08:07:13;;;;;;;3.33;1.00;;;15.30;99.90;;;;;;4983865;28;21304;-76
2021/05/16 08:09:39;;;;;;;2.33;0.60;;;15.40;99.90;;;;;;4979415;28;20192;-77
2021/05/16 08:12:05;;;;;;;1.40;0.70;;;15.60;99.90;;;;;;4974405;28;20183;-79
2021/05/16 08:14:31;;;;;;;2.43;0.73;;;15.70;99.90;;;;;;4988953;28;20601;-78
2021/05/16 08:16:56;;;;;;;1.37;0.50;;;15.80;99.90;;;;;;4989485;28;20589;-79
2021/05/16 08:19:23;;;;;;;2.87;0.80;;;15.90;99.90;;;;;;4983696;28;20218;-78
2021/05/16 08:21:49;;;;;;;1.40;0.70;;;16.00;99.90;;;;;;4991923;28;20178;-79
2021/05/16 08:24:15;;;;;;;2.27;0.60;;;16.10;99.90;;;;;;4990654;28;21137;-78
2021/05/16 08:26:42;;;;;;;1.77;1.00;;;16.20;99.90;;;;;;4973155;28;20206;-79
2021/05/16 08:29:08;;;;;;;2.10;0.70;;;16.30;99.90;;;;;;4991346;28;20625;-78
2021/05/16 08:31:37;;;;;;;10.63;5.17;;;16.40;99.90;;;;;;4991874;28;20672;-79
2021/05/16 08:34:07;;;;;;;4.17;1.43;;;16.50;99.90;;;;;;4974373;28;20940;-78
2021/05/16 08:36:35;;;;;;;3.20;1.50;;;16.60;99.90;;;;;;4973991;28;20587;-79
2021/05/16 08:39:01;;;;;;;4.87;2.27;;;16.80;99.90;;;;;;4974318;28;20669;-78
2021/05/16 08:41:26;;;;;;;3.47;2.33;;;17.00;99.90;;;;;;5002889;23;20665;-75
2021/05/16 08:43:52;;;;;;;5.37;1.33;;;17.20;99.90;;;;;;4974995;28;20589;-75
2021/05/16 08:46:18;;;;;;;4.43;2.63;;;17.90;99.90;;;;;;4967314;28;20199;-75
2021/05/16 08:48:44;;;;;;;3.53;1.93;;;18.50;99.90;;;;;;4963334;28;20662;-75
2021/05/16 08:51:10;;;;;;;5.80;1.80;;;19.00;99.90;;;;;;4968635;28;20615;-75
2021/05/16 08:53:37;;;;;;;4.30;2.03;;;19.40;99.90;;;;;;4976679;28;20182;-75
2021/05/16 08:56:06;;;;;;;4.57;2.17;;;19.50;99.90;;;;;;4966487;28;20588;-76
2021/05/16 08:58:33;;;;;;;5.10;2.30;;;19.50;99.90;;;;;;4959055;28;20645;-75
2021/05/16 09:00:59;;;;;;;4.07;1.93;;;19.50;99.90;;;;;;4992110;28;20645;-75
2021/05/16 09:03:25;;;;;;;2.63;1.40;;;19.40;99.90;;;;;;4991815;28;20609;-75
2021/05/16 09:05:53;;;;;;;1.80;1.20;;;19.20;99.90;;;;;;4991747;28;20664;-75
2021/05/16 09:08:26;;;;;;;2.10;1.10;;;19.10;99.90;;;;;;4991680;28;20605;-80
2021/05/16 09:11:00;;;;;;;2.10;0.90;;;19.30;99.90;;;;;;4991826;28;20602;-81
2021/05/16 09:13:34;;;;;;;3.13;1.07;;;20.00;99.90;;;;;;4971277;28;21121;-80
2021/05/16 09:16:18;;;;;;;1.50;0.60;;;20.50;99.90;;;;;;5001727;28;20601;-80
2021/05/16 09:18:55;;;;;;;2.57;1.00;;;20.70;99.90;;;;;;4984731;28;20651;-80
2021/05/16 09:21:34;;;;;;;2.60;0.93;;;20.90;99.90;;;;;;4990869;28;20631;-80
2021/05/16 09:24:00;;;;;;;1.77;0.60;;;20.90;99.90;;;;;;4978427;28;20594;-80
2021/05/16 09:26:34;;;;;;;4.20;1.20;;;20.80;99.90;;;;;;4981746;28;20683;-80
2021/05/16 09:29:33;;;;;;;1.87;0.90;;;20.70;99.90;;;;;;4995052;28;20178;-79
2021/05/16 09:32:01;;;;;;;2.60;0.83;;;20.80;99.90;;;;;;4994618;28;20622;-80
2021/05/16 09:34:28;;;;;;;2.00;0.97;;;21.40;99.90;;;;;;4986107;28;20595;-79
2021/05/16 09:36:55;;;;;;;2.60;0.70;;;22.10;99.90;;;;;;4960569;28;20644;-80
2021/05/16 09:39:21;;;;;;;2.20;0.67;;;22.90;99.90;;;;;;4977106;28;20586;-79
2021/05/16 09:42:11;;;;;;;2.80;0.93;;;23.70;99.90;;;;;;4960825;28;20633;-80
2021/05/16 09:44:45;;;;;;;3.07;0.93;;;24.50;99.90;;;;;;4976835;28;20578;-79
2021/05/16 09:47:12;;;;;;;2.27;0.67;;;25.50;99.90;;;;;;4960521;28;20637;-80
2021/05/16 09:49:38;;;;;;;2.23;0.70;;;26.50;99.90;;;;;;4975605;28;20562;-79
2021/05/16 09:52:17;;;;;;;3.80;0.70;;;27.20;99.90;;;;;;4970176;28;20992;-80
2021/05/16 09:54:54;;;;;;;2.20;1.07;;;27.50;99.90;;;;;;4924934;29;20591;-78
2021/05/16 09:57:20;;;;;;;2.83;0.90;;;27.60;99.90;;;;;;4939193;29;20676;-79
2021/05/16 09:59:46;;;;;;;4.17;0.93;;;27.80;99.90;;;;;;4938661;29;20672;-78
2021/05/16 10:02:14;;;;;;;1.53;0.70;;;28.10;99.90;;;;;;4955498;28;20944;-78
2021/05/16 10:04:40;;;;;;;1.67;0.70;;;28.60;99.90;;;;;;4922760;29;20942;-80
2021/05/16 10:07:09;;;;;;;2.10;0.80;;;28.80;99.10;;;;;;4955428;29;20673;-79
2021/05/16 10:09:35;;;;;;;2.33;0.77;;;28.80;97.20;;;;;;4955637;29;20568;-80
2021/05/16 10:12:07;;;;;;;3.73;0.73;;;29.00;96.70;;;;;;4938107;29;20612;-79
2021/05/16 10:14:39;;;;;;;2.70;0.70;;;29.40;95.90;;;;;;4938449;29;20173;-79
2021/05/16 10:17:07;;;;;;;2.13;0.60;;;29.90;95.20;;;;;;4961486;28;21150;-80
2021/05/16 10:19:36;;;;;;;3.03;0.73;;;30.40;94.30;;;;;;4973035;28;20621;-80
2021/05/16 10:22:07;;;;;;;3.47;0.87;;;30.60;92.30;;;;;;4993934;28;20621;-80
2021/05/16 10:24:49;;;;;;;3.33;0.80;;;30.50;87.80;;;;;;4921316;29;20584;-80
2021/05/16 10:27:23;;;;;;;2.23;0.90;;;30.10;83.70;;;;;;4940192;28;21546;-80
2021/05/16 10:29:52;;;;;;;5.17;1.17;;;29.50;82.10;;;;;;4976469;28;21049;-80
2021/05/16 10:32:31;;;;;;;1.40;0.60;;;29.20;82.60;;;;;;4998465;28;20686;-80
2021/05/16 10:35:02;;;;;;;1.60;0.70;;;29.20;82.00;;;;;;4976479;28;20582;-80
2021/05/16 10:37:38;;;;;;;2.20;0.70;;;29.00;80.80;;;;;;4993357;28;20585;-80
2021/05/16 10:40:22;;;;;;;2.70;0.70;;;28.60;77.70;;;;;;4976223;28;20578;-80
2021/05/16 10:42:50;;;;;;;1.97;0.70;;;28.40;78.30;;;;;;4975995;28;20724;-79
2021/05/16 10:45:16;;;;;;;1.83;0.70;;;28.40;80.80;;;;;;4993636;28;21176;-80
2021/05/16 10:47:44;;;;;;;4.97;1.00;;;28.60;81.30;;;;;;4976916;28;21339;-79
2021/05/16 10:50:25;;;;;;;3.43;0.60;;;28.90;82.30;;;;;;4977480;28;20932;-78
2021/05/16 10:53:14;;;;;;;3.87;0.90;;;29.10;79.30;;;;;;4975744;28;20697;-78
2021/05/16 10:55:46;;;;;;;1.30;0.53;;;29.20;77.80;;;;;;4993287;28;20964;-78
2021/05/16 10:58:34;;;;;;;1.80;0.70;;;29.30;76.00;;;;;;4992709;28;20570;-78
2021/05/16 11:01:04;;;;;;;1.70;0.70;;;29.20;73.70;;;;;;4988313;28;21225;-78
2021/05/16 11:03:56;;;;;;;2.20;1.10;;;29.00;72.00;;;;;;4984904;28;20670;-78
2021/05/16 11:06:31;;;;;;;2.53;0.80;;;28.70;68.60;;;;;;4959629;28;21180;-78
2021/05/16 11:08:56;;;;;;;2.07;0.60;;;28.40;67.10;;;;;;4963116;28;21215;-77
2021/05/16 11:11:27;;;;;;;1.40;0.63;;;28.20;68.70;;;;;;4994501;28;20624;-79
2021/05/16 11:13:53;;;;;;;2.07;0.80;;;27.90;67.10;;;;;;4975778;28;20175;-79
2021/05/16 11:16:19;;;;;;;3.23;0.70;;;27.70;67.10;;;;;;4992734;28;20581;-78
2021/05/16 11:18:45;;;;;;;1.93;0.60;;;27.50;66.70;;;;;;4975001;28;20588;-79
2021/05/16 11:21:11;;;;;;;2.00;0.80;;;27.40;67.40;;;;;;4975123;28;20203;-78
2021/05/16 11:23:39;;;;;;;1.77;0.70;;;27.50;68.30;;;;;;4975367;28;20606;-79
2021/05/16 11:26:07;;;;;;;2.30;0.80;;;27.70;69.30;;;;;;4992648;28;21067;-78
2021/05/16 11:28:37;;;;;;;1.83;0.63;;;27.90;69.00;;;;;;4992369;28;20621;-78
2021/05/16 11:31:11;;;;;;;2.60;0.77;;;28.00;67.30;;;;;;4992631;28;20633;-78
2021/05/16 11:33:40;;;;;;;3.87;1.03;;;27.80;64.70;;;;;;4992651;28;20574;-78
2021/05/16 11:36:14;;;;;;;1.70;0.90;;;27.80;65.30;;;;;;4974712;28;20645;-78
2021/05/16 11:38:43;;;;;;;4.00;1.00;;;27.70;64.40;;;;;;4974935;28;20580;-78
2021/05/16 11:41:26;;;;;;;2.43;0.87;;;27.70;65.30;;;;;;4992261;28;20631;-78
2021/05/16 11:43:51;;;;;;;2.07;0.87;;;27.80;65.70;;;;;;4959011;28;21125;-78
2021/05/16 11:46:24;;;;;;;5.47;2.00;;;27.90;65.50;;;;;;4997395;28;20621;-78
2021/05/16 11:48:50;;;;;;;3.40;1.37;;;27.70;64.30;;;;;;4992922;28;20203;-79
2021/05/16 11:51:17;;;;;;;3.83;1.40;;;27.50;63.10;;;;;;4992356;28;20618;-79
2021/05/16 11:53:52;;;;;;;4.90;1.40;;;27.30;62.50;;;;;;4992429;28;20253;-78
2021/05/16 11:56:40;;;;;;;3.97;1.60;;;27.00;59.40;;;;;;4992045;28;20594;-78
2021/05/16 11:59:07;;;;;;;3.63;1.30;;;26.70;60.60;;;;;;4992189;28;20626;-79
2021/05/16 12:01:37;;;;;;;1.93;0.87;;;26.20;60.70;;;;;;4992143;28;20590;-78
2021/05/16 12:04:05;;;;;;;2.13;0.70;;;25.90;61.00;;;;;;4975006;28;20652;-78
2021/05/16 12:06:41;;;;;;;2.43;0.70;;;25.80;63.40;;;;;;4958264;28;20664;-78
2021/05/16 12:09:12;;;;;;;3.30;0.90;;;25.80;65.30;;;;;;4974571;28;20581;-78
2021/05/16 12:11:39;;;;;;;2.00;0.80;;;26.00;66.60;;;;;;4973730;28;21181;-79
2021/05/16 12:14:24;;;;;;;4.30;1.23;;;26.10;67.30;;;;;;4972679;28;20564;-79
2021/05/16 12:16:58;;;;;;;2.37;0.70;;;26.30;67.00;;;;;;4972362;28;20702;-79
2021/05/16 12:19:29;;;;;;;2.47;1.20;;;26.40;66.00;;;;;;4939362;28;20599;-79
2021/05/16 12:21:58;;;;;;;2.73;0.80;;;26.50;65.70;;;;;;4972657;28;20599;-79
2021/05/16 12:24:30;;;;;;;2.57;0.83;;;26.60;66.60;;;;;;4955660;28;20606;-79
2021/05/16 12:26:57;;;;;;;3.50;0.90;;;26.70;65.90;;;;;;4959624;28;20639;-79
2021/05/16 12:29:23;;;;;;;1.90;0.77;;;26.70;65.50;;;;;;4955360;28;20678;-79
2021/05/16 12:31:49;;;;;;;1.57;0.80;;;26.70;64.00;;;;;;4955352;28;21145;-79
2021/05/16 12:34:16;;;;;;;3.83;0.90;;;26.60;63.20;;;;;;4972704;28;20625;-79
2021/05/16 12:36:49;;;;;;;1.17;0.50;;;26.30;62.10;;;;;;4955326;28;20175;-80
2021/05/16 12:39:32;;;;;;;1.60;0.80;;;26.10;61.00;;;;;;4955550;28;20612;-80
2021/05/16 12:41:59;;;;;;;1.77;0.87;;;25.80;61.40;;;;;;4972405;28;20649;-80
2021/05/16 12:44:25;;;;;;;2.90;1.10;;;25.60;60.90;;;;;;4955285;28;20571;-80
2021/05/16 12:46:57;;;;;;;3.87;0.80;;;25.30;60.70;;;;;;4939224;28;20638;-80
2021/05/16 12:49:27;;;;;;;1.30;0.60;;;25.10;59.80;;;;;;4976174;28;20582;-80
2021/05/16 12:51:59;;;;;;;1.77;0.80;;;24.80;59.70;;;;;;4976276;28;20976;-80
2021/05/16 12:54:26;;;;;;;2.73;0.90;;;24.50;59.30;;;;;;4959146;28;20935;-80
2021/05/16 12:57:17;;;;;;;3.70;1.63;;;24.20;58.70;;;;;;4958513;28;20583;-80
2021/05/16 12:59:43;;;;;;;4.53;2.07;;;23.90;58.60;;;;;;4976446;28;20586;-80
2021/05/16 13:02:14;;;;;;;2.43;1.40;;;23.50;59.00;;;;;;4980556;28;20603;-80
2021/05/16 13:04:54;;;;;;;2.53;1.17;;;23.30;59.10;;;;;;4977158;28;20180;-80
2021/05/16 13:07:50;;;;;;;1.77;0.70;;;23.00;59.50;;;;;;4975725;28;20673;-80